This is the latest recevied weather packets stored in our database for station/object HS9UAC-10. If no packets are shown the sender has not sent any weather packets the latest 10 day(s).
| Time | Temp. | Humidity | Pressure | Rain* | Wind** | Luminosity | Snow |
|---|---|---|---|---|---|---|---|
| 1777940014 | 32.78° C | 90% | 1007 hPa | - | - | 0 W/m² | - |
| 1777939089 | 32.22° C | 91% | 1007 hPa | - | - | 0 W/m² | - |
| 1777938164 | 32.22° C | 91% | 1007 hPa | - | - | 0 W/m² | - |
| 1777937240 | 32.22° C | 91% | 1007 hPa | - | - | 0 W/m² | - |
| 1777936315 | 32.22° C | 90% | 1007 hPa | - | - | 0 W/m² | - |
| 1777935391 | 32.22° C | 89% | 1007 hPa | - | - | 0 W/m² | - |
| 1777934466 | 32.22° C | 89% | 1007 hPa | - | - | 0 W/m² | - |
| 1777933542 | 32.22° C | 88% | 1006 hPa | - | - | 0 W/m² | - |
| 1777932617 | 31.67° C | 90% | 1006 hPa | - | - | 0 W/m² | - |
| 1777931693 | 32.22° C | 89% | 1006 hPa | - | - | 0 W/m² | - |
| 1777930768 | 32.22° C | 87% | 1006 hPa | - | - | 0 W/m² | - |
| 1777929843 | 31.67° C | 87% | 1007 hPa | - | - | 0 W/m² | - |
| 1777928919 | 32.22° C | 85% | 1006 hPa | - | - | 0 W/m² | - |
| 1777927994 | 32.22° C | 82% | 1006 hPa | - | - | 0 W/m² | - |
| 1777927070 | 32.78° C | 80% | 1007 hPa | - | - | 0 W/m² | - |
| 1777926145 | 32.78° C | 78% | 1007 hPa | - | - | 0 W/m² | - |
| 1777925220 | 32.78° C | 78% | 1007 hPa | - | - | 0 W/m² | - |
| 1777924296 | 33.33° C | 78% | 1007 hPa | - | - | 0 W/m² | - |
| 1777923371 | 33.33° C | 77% | 1007 hPa | - | - | 0 W/m² | - |
| 1777922447 | 34.44° C | 74% | 1007 hPa | - | - | 0 W/m² | - |
| 1777921522 | 33.89° C | 80% | 1008 hPa | - | - | 0 W/m² | - |
| 1777920597 | 33.89° C | 77% | 1008 hPa | - | - | 0 W/m² | - |
| 1777919399 | 34.44° C | 73% | 1008 hPa | - | - | 0 W/m² | - |
| 1777918475 | 35° C | 73% | 1008 hPa | - | - | 0 W/m² | - |
| 1777917550 | 35° C | 75% | 1008 hPa | - | - | 0 W/m² | - |
* Rain since midnight (hover to see other rain measurements)
** Current wind speed in m/s (hover to see current wind gust speed)